Time;durP1;ratioP1;P1;durP2;ratioP2;P2;SDS_P1;SDS_P2;PMS_P1;PMS_P2;Temp;Humidity;BMP_temperature;BMP_pressure;BME280_temperature;BME280_humidity;BME280_pressure;Samples;Min_cycle;Max_cycle;Signal;HPM_P1;HPM_P2
2021/09/05 00:01:35;;;;;;;;;;;;;;;13.91;76.36;98553.23;1520568;93;24775;-88
2021/09/05 00:04:05;;;;;;;;;;;;;;;13.86;76.40;98556.69;1526877;93;21988;-88
2021/09/05 00:06:31;;;;;;;;;;;;;;;13.78;76.48;98555.53;1543872;91;26030;-88
2021/09/05 00:09:00;;;;;;;;;;;;;;;13.71;76.52;98553.52;1528831;93;24606;-88
2021/09/05 00:11:29;;;;;;;;;;;;;;;13.68;76.59;98560.34;1520919;93;20244;-88
2021/09/05 00:13:55;;;;;;;;;;;;;;;13.68;76.66;98566.44;1548876;91;24780;-89
2021/09/05 00:16:23;;;;;;;;;;;;;;;13.69;76.77;98565.97;1549820;91;21960;-88
2021/09/05 00:18:49;;;;;;;;;;;;;;;13.68;76.87;98565.12;1552933;91;25991;-89
2021/09/05 00:21:15;;;;;;;;;;;;;;;13.66;76.95;98568.83;1546096;91;24411;-89
2021/09/05 00:23:41;;;;;;;;;;;;;;;13.63;77.01;98571.24;1517860;93;21148;-89
2021/09/05 00:26:08;;;;;;;;;;;;;;;13.63;77.10;98573.03;1530572;93;24754;-89
2021/09/05 00:28:34;;;;;;;;;;;;;;;13.64;77.19;98573.36;1524422;93;21976;-89
2021/09/05 00:31:01;;;;;;;;;;;;;;;13.62;77.26;98570.04;1549725;91;26775;-88
2021/09/05 00:33:27;;;;;;;;;;;;;;;13.68;77.34;98575.66;1521572;92;24516;-89
2021/09/05 00:35:53;;;;;;;;;;;;;;;13.75;77.44;98579.44;1548353;91;20223;-88
2021/09/05 00:38:19;;;;;;;;;;;;;;;13.72;77.50;98577.06;1527378;93;24893;-88
2021/09/05 00:40:47;;;;;;;;;;;;;;;13.70;77.53;98576.81;1519120;93;21977;-88
2021/09/05 00:43:13;;;;;;;;;;;;;;;13.68;77.55;98582.22;1532440;93;26052;-88
2021/09/05 00:45:39;;;;;;;;;;;;;;;13.84;77.61;98585.77;1552896;91;24425;-88
2021/09/05 00:48:05;;;;;;;;;;;;;;;13.87;77.64;98588.62;1550110;91;20279;-88
2021/09/05 00:50:31;;;;;;;;;;;;;;;13.82;77.65;98589.83;1545572;91;25546;-88
2021/09/05 00:52:59;;;;;;;;;;;;;;;13.75;77.64;98593.91;1533335;93;21925;-88
2021/09/05 00:55:26;;;;;;;;;;;;;;;13.67;77.61;98588.44;1526034;93;26898;-88
2021/09/05 00:57:55;;;;;;;;;;;;;;;13.65;77.62;98592.13;1520585;93;24464;-89
2021/09/05 01:00:24;;;;;;;;;;;;;;;13.61;77.60;98584.14;1523333;93;20251;-88
2021/09/05 01:02:49;;;;;;;;;;;;;;;13.57;77.62;98587.50;1546131;91;25343;-88
2021/09/05 01:05:15;;;;;;;;;;;;;;;13.51;77.62;98587.15;1547638;90;22230;-88
2021/09/05 01:07:41;;;;;;;;;;;;;;;13.43;77.61;98589.05;1545378;91;26032;-89
2021/09/05 01:10:13;;;;;;;;;;;;;;;13.37;77.63;98586.91;1521583;93;25249;-89
2021/09/05 01:12:40;;;;;;;;;;;;;;;13.32;77.65;98587.27;1548225;91;20737;-89
2021/09/05 01:15:07;;;;;;;;;;;;;;;13.30;77.69;98589.68;1520934;93;24771;-89
2021/09/05 01:17:38;;;;;;;;;;;;;;;13.25;77.74;98591.84;1545731;91;21938;-89
2021/09/05 01:20:12;;;;;;;;;;;;;;;13.23;77.76;98600.30;1526990;93;25658;-89
2021/09/05 01:22:38;;;;;;;;;;;;;;;13.18;77.79;98598.52;1522165;93;25494;-89
2021/09/05 01:25:05;;;;;;;;;;;;;;;13.11;77.83;98603.38;1519097;93;20309;-89
2021/09/05 01:27:34;;;;;;;;;;;;;;;13.02;77.85;98609.83;1543538;91;25312;-89
2021/09/05 01:30:00;;;;;;;;;;;;;;;12.92;77.87;98609.23;1523282;93;21937;-89
2021/09/05 01:32:27;;;;;;;;;;;;;;;12.94;77.91;98606.45;1531880;93;26024;-89
2021/09/05 01:34:55;;;;;;;;;;;;;;;12.93;77.98;98604.78;1519452;93;24500;-87
2021/09/05 01:37:21;;;;;;;;;;;;;;;12.92;78.03;98607.08;1524695;93;20242;-88
2021/09/05 01:39:49;;;;;;;;;;;;;;;12.90;78.09;98612.91;1527581;93;24808;-87
2021/09/05 01:42:15;;;;;;;;;;;;;;;12.83;78.12;98612.53;1518117;93;22250;-88
2021/09/05 01:44:41;;;;;;;;;;;;;;;12.76;78.18;98613.97;1545563;91;25837;-89
2021/09/05 01:47:09;;;;;;;;;;;;;;;12.66;78.19;98619.53;1518211;93;20258;-89
2021/09/05 01:49:36;;;;;;;;;;;;;;;12.63;78.22;98617.62;1518423;93;20431;-88
2021/09/05 01:52:05;;;;;;;;;;;;;;;12.60;78.29;98625.75;1544185;91;24764;-89
2021/09/05 01:54:31;;;;;;;;;;;;;;;12.58;78.34;98619.29;1568315;90;22361;-89
2021/09/05 01:56:57;;;;;;;;;;;;;;;12.58;78.42;98619.29;1520273;93;21227;-89
2021/09/05 01:59:23;;;;;;;;;;;;;;;12.60;78.49;98617.36;1530206;93;24924;-89
2021/09/05 02:01:50;;;;;;;;;;;;;;;12.64;78.56;98616.20;1546635;91;20495;-88
2021/09/05 02:04:21;;;;;;;;;;;;;;;12.65;78.64;98617.89;1545896;90;20210;-89
2021/09/05 02:06:49;;;;;;;;;;;;;;;12.62;78.68;98623.82;1518377;93;21995;-89
2021/09/05 02:09:15;;;;;;;;;;;;;;;12.60;78.70;98625.23;1519571;93;26961;-89
2021/09/05 02:11:42;;;;;;;;;;;;;;;12.61;78.79;98625.61;1548580;91;24444;-89
2021/09/05 02:14:10;;;;;;;;;;;;;;;12.63;78.85;98622.41;1551126;91;20340;-88
2021/09/05 02:16:36;;;;;;;;;;;;;;;12.61;78.89;98621.67;1552793;91;20326;-88
2021/09/05 02:19:03;;;;;;;;;;;;;;;12.56;78.91;98627.27;1551627;91;22089;-88
2021/09/05 02:21:29;;;;;;;;;;;;;;;12.55;78.93;98625.59;1526802;93;26032;-88
2021/09/05 02:23:55;;;;;;;;;;;;;;;12.53;78.97;98624.89;1549490;91;24522;-88
2021/09/05 02:26:21;;;;;;;;;;;;;;;12.48;78.96;98628.81;1551316;91;20755;-88
2021/09/05 02:28:48;;;;;;;;;;;;;;;12.43;78.97;98625.69;1545285;91;24853;-88
2021/09/05 02:31:16;;;;;;;;;;;;;;;12.41;78.99;98626.27;1541888;91;22092;-88
2021/09/05 02:33:42;;;;;;;;;;;;;;;12.38;79.02;98619.44;1527726;91;26205;-88
2021/09/05 02:36:08;;;;;;;;;;;;;;;12.37;79.04;98626.98;1529159;93;20315;-88
2021/09/05 02:38:35;;;;;;;;;;;;;;;12.33;79.08;98631.27;1524955;93;20264;-88
2021/09/05 02:41:03;;;;;;;;;;;;;;;12.30;79.11;98630.16;1532301;93;25016;-89
2021/09/05 02:43:29;;;;;;;;;;;;;;;12.30;79.15;98634.94;1554317;91;22004;-89
2021/09/05 02:45:55;;;;;;;;;;;;;;;12.28;79.18;98636.83;1552555;91;26043;-89
2021/09/05 02:48:21;;;;;;;;;;;;;;;12.22;79.19;98640.39;1554235;91;24451;-89
2021/09/05 02:50:47;;;;;;;;;;;;;;;12.14;79.21;98632.60;1551947;91;20253;-89
2021/09/05 02:53:19;;;;;;;;;;;;;;;12.07;79.20;98641.86;1529715;93;20211;-89
2021/09/05 02:55:45;;;;;;;;;;;;;;;11.95;79.21;98645.36;1524318;93;22133;-89
2021/09/05 02:58:11;;;;;;;;;;;;;;;11.85;79.21;98646.13;1524058;93;26030;-89
2021/09/05 03:00:37;;;;;;;;;;;;;;;11.85;79.25;98641.73;1525885;93;24665;-88
2021/09/05 03:03:03;;;;;;;;;;;;;;;11.87;79.32;98644.25;1531326;92;20912;-88
2021/09/05 03:05:29;;;;;;;;;;;;;;;11.92;79.40;98648.69;1570684;90;20235;-88
2021/09/05 03:07:57;;;;;;;;;;;;;;;11.95;79.49;98642.73;1542171;92;21960;-88
2021/09/05 03:10:23;;;;;;;;;;;;;;;12.00;79.57;98643.23;1545687;92;25991;-87
2021/09/05 03:12:49;;;;;;;;;;;;;;;12.13;79.66;98647.97;1522176;93;24498;-87
2021/09/05 03:15:15;;;;;;;;;;;;;;;12.17;79.72;98648.58;1513695;93;20893;-87
2021/09/05 03:17:41;;;;;;;;;;;;;;;12.19;79.75;98651.09;1518276;93;24777;-88
2021/09/05 03:20:08;;;;;;;;;;;;;;;12.23;79.78;98656.00;1499673;94;36052;-87
2021/09/05 03:22:35;;;;;;;;;;;;;;;12.16;79.79;98662.67;1510891;93;26084;-87
2021/09/05 03:25:01;;;;;;;;;;;;;;;12.12;79.81;98659.41;1512290;93;24497;-87
2021/09/05 03:27:31;;;;;;;;;;;;;;;12.09;79.76;98654.88;1518830;93;20321;-87
2021/09/05 03:30:01;;;;;;;;;;;;;;;12.03;79.76;98658.77;1514280;93;25634;-87
2021/09/05 03:32:27;;;;;;;;;;;;;;;11.94;79.73;98652.89;1519708;93;22268;-87
2021/09/05 03:34:53;;;;;;;;;;;;;;;11.89;79.71;98662.03;1542110;92;21126;-87
2021/09/05 03:37:20;;;;;;;;;;;;;;;11.83;79.71;98662.00;1572035;90;24417;-89
2021/09/05 03:39:46;;;;;;;;;;;;;;;11.80;79.72;98655.64;1572246;90;20577;-88
2021/09/05 03:42:12;;;;;;;;;;;;;;;11.76;79.70;98662.06;1567900;90;24760;-88
2021/09/05 03:44:38;;;;;;;;;;;;;;;11.72;79.75;98659.27;1567117;90;20332;-88
2021/09/05 03:47:04;;;;;;;;;;;;;;;11.71;79.76;98661.05;1582737;90;25914;-88
2021/09/05 03:49:31;;;;;;;;;;;;;;;11.73;79.80;98657.86;1566901;90;24490;-88
2021/09/05 03:52:00;;;;;;;;;;;;;;;11.88;79.87;98657.26;1543434;92;20542;-89
2021/09/05 03:54:26;;;;;;;;;;;;;;;12.01;79.98;98656.72;1538455;92;24836;-88
2021/09/05 03:56:52;;;;;;;;;;;;;;;11.99;80.01;98657.33;1541043;92;20358;-88
2021/09/05 03:59:18;;;;;;;;;;;;;;;11.96;80.03;98654.06;1517146;93;21080;-89
2021/09/05 04:01:45;;;;;;;;;;;;;;;12.05;80.06;98654.73;1540798;92;24425;-89
2021/09/05 04:04:11;;;;;;;;;;;;;;;12.21;80.11;98658.39;1540193;92;20354;-88
2021/09/05 04:06:37;;;;;;;;;;;;;;;12.35;80.13;98660.84;1541460;92;24843;-88
2021/09/05 04:09:09;;;;;;;;;;;;;;;12.30;80.11;98669.52;1539604;92;22128;-88
2021/09/05 04:11:36;;;;;;;;;;;;;;;12.14;80.05;98665.39;1539952;92;26138;-88
2021/09/05 04:14:03;;;;;;;;;;;;;;;12.05;80.00;98671.31;1541763;92;25471;-88
2021/09/05 04:16:29;;;;;;;;;;;;;;;12.04;79.99;98671.42;1540024;92;20271;-88
2021/09/05 04:18:55;;;;;;;;;;;;;;;12.15;79.99;98676.73;1540197;92;20263;-88
2021/09/05 04:21:21;;;;;;;;;;;;;;;12.28;80.01;98672.72;1541839;92;22051;-88
2021/09/05 04:23:47;;;;;;;;;;;;;;;12.39;80.00;98670.99;1552607;91;26274;-88
2021/09/05 04:26:13;;;;;;;;;;;;;;;12.50;79.98;98678.08;1531126;92;20920;-88
2021/09/05 04:28:39;;;;;;;;;;;;;;;12.56;79.95;98678.94;1500691;94;20501;-88
2021/09/05 04:31:05;;;;;;;;;;;;;;;12.53;79.85;98681.80;1531898;92;20298;-88
2021/09/05 04:33:31;;;;;;;;;;;;;;;12.51;79.80;98685.84;1529507;92;21964;-88
2021/09/05 04:35:59;;;;;;;;;;;;;;;12.39;79.72;98690.67;1501049;94;26102;-88
2021/09/05 04:38:25;;;;;;;;;;;;;;;12.24;79.64;98700.14;1502137;95;24447;-88
2021/09/05 04:40:58;;;;;;;;;;;;;;;12.04;79.56;98701.59;1495400;94;20229;-88
2021/09/05 04:43:24;;;;;;;;;;;;;;;11.89;79.49;98707.42;1528010;93;24755;-88
2021/09/05 04:45:52;;;;;;;;;;;;;;;11.77;79.46;98710.94;1506279;94;20277;-88
2021/09/05 04:48:18;;;;;;;;;;;;;;;11.61;79.44;98692.80;1536423;92;26223;-88
2021/09/05 04:50:46;;;;;;;;;;;;;;;11.69;79.47;98712.73;1554407;91;20298;-88
2021/09/05 04:53:11;;;;;;;;;;;;;;;11.87;79.52;98713.74;1553552;92;20495;-89
2021/09/05 04:55:38;;;;;;;;;;;;;;;11.93;79.61;98714.16;1553057;91;24828;-88
2021/09/05 04:58:04;;;;;;;;;;;;;;;11.87;79.63;98718.98;1521151;92;22058;-88
2021/09/05 05:00:30;;;;;;;;;;;;;;;11.84;79.67;98718.72;1550191;91;25986;-87
2021/09/05 05:02:57;;;;;;;;;;;;;;;11.80;79.73;98719.05;1537215;91;20327;-88
2021/09/05 05:05:23;;;;;;;;;;;;;;;11.79;79.77;98729.16;1572025;91;20512;-88
2021/09/05 05:07:54;;;;;;;;;;;;;;;11.78;79.82;98728.35;1559734;91;24840;-88
2021/09/05 05:10:19;;;;;;;;;;;;;;;11.97;79.89;98735.75;1556702;92;22157;-88
2021/09/05 05:12:45;;;;;;;;;;;;;;;12.16;79.99;98733.51;1556736;91;26727;-89
2021/09/05 05:15:14;;;;;;;;;;;;;;;12.23;80.09;98743.06;1555006;92;24212;-88
2021/09/05 05:17:40;;;;;;;;;;;;;;;12.28;80.17;98739.64;1560244;91;20387;-88
2021/09/05 05:20:07;;;;;;;;;;;;;;;12.34;80.23;98741.82;1554768;91;24760;-87
2021/09/05 05:22:39;;;;;;;;;;;;;;;12.41;80.29;98747.00;1558790;91;22078;-88
2021/09/05 05:25:17;;;;;;;;;;;;;;;12.39;80.32;98752.83;1560269;91;26068;-88
2021/09/05 05:27:43;;;;;;;;;;;;;;;12.35;80.30;98744.81;1556223;91;24644;-87
2021/09/05 05:30:09;;;;;;;;;;;;;;;12.34;80.33;98747.07;1559461;91;20238;-87
2021/09/05 05:32:35;;;;;;;;;;;;;;;12.29;80.34;98751.81;1557029;91;24741;-87
2021/09/05 05:35:01;;;;;;;;;;;;;;;12.18;80.31;98760.92;1558166;91;20865;-87
2021/09/05 05:37:27;;;;;;;;;;;;;;;12.05;80.29;98763.60;1557689;91;25979;-88
2021/09/05 05:39:53;;;;;;;;;;;;;;;11.97;80.28;98761.98;1558596;91;20268;-88
2021/09/05 05:42:19;;;;;;;;;;;;;;;11.93;80.31;98771.02;1557501;91;20302;-88
2021/09/05 05:44:51;;;;;;;;;;;;;;;11.98;80.39;98768.91;1558619;91;25379;-89
2021/09/05 05:47:17;;;;;;;;;;;;;;;12.01;80.52;98773.45;1556710;91;22060;-89
2021/09/05 05:49:46;;;;;;;;;;;;;;;12.01;80.61;98775.23;1557780;91;21176;-89
2021/09/05 05:52:11;;;;;;;;;;;;;;;12.02;80.69;98775.13;1557805;91;24579;-89
2021/09/05 05:54:40;;;;;;;;;;;;;;;12.06;80.78;98775.74;1559285;91;20262;-89
2021/09/05 05:57:07;;;;;;;;;;;;;;;12.06;80.88;98775.74;1555537;91;24854;-87
2021/09/05 05:59:33;;;;;;;;;;;;;;;12.13;80.99;98778.31;1556751;91;22047;-87
2021/09/05 06:01:59;;;;;;;;;;;;;;;12.14;81.09;98782.62;1557394;91;26088;-86
2021/09/05 06:04:25;;;;;;;;;;;;;;;12.18;81.19;98784.54;1564746;90;20274;-87
2021/09/05 06:06:53;;;;;;;;;;;;;;;12.22;81.29;98792.58;1570746;90;20250;-87
2021/09/05 06:09:21;;;;;;;;;;;;;;;12.23;81.40;98795.55;1542334;91;24946;-87
2021/09/05 06:11:48;;;;;;;;;;;;;;;12.25;81.52;98789.73;1518019;93;21447;-89
2021/09/05 06:14:14;;;;;;;;;;;;;;;12.31;81.64;98794.08;1511507;93;26930;-88
2021/09/05 06:16:40;;;;;;;;;;;;;;;12.34;81.72;98796.47;1526274;93;20292;-88
2021/09/05 06:19:06;;;;;;;;;;;;;;;12.39;81.82;98796.97;1535701;92;20240;-88
2021/09/05 06:21:32;;;;;;;;;;;;;;;12.51;81.93;98795.27;1545015;91;24859;-88
2021/09/05 06:23:59;;;;;;;;;;;;;;;12.59;82.07;98802.13;1518352;93;22058;-87
2021/09/05 06:26:25;;;;;;;;;;;;;;;12.65;82.16;98801.69;1541388;90;26035;-88
2021/09/05 06:28:51;;;;;;;;;;;;;;;12.72;82.25;98802.06;1539677;91;24412;-88
2021/09/05 06:31:17;;;;;;;;;;;;;;;12.80;82.35;98799.73;1524209;93;20316;-87
2021/09/05 06:33:43;;;;;;;;;;;;;;;12.84;82.42;98798.55;1516591;93;20278;-88
2021/09/05 06:36:09;;;;;;;;;;;;;;;12.88;82.48;98803.45;1512189;92;21934;-88
2021/09/05 06:38:35;;;;;;;;;;;;;;;12.92;82.52;98807.56;1538157;91;21097;-87
2021/09/05 06:41:01;;;;;;;;;;;;;;;12.98;82.58;98803.14;1521582;93;20912;-88
2021/09/05 06:43:27;;;;;;;;;;;;;;;12.99;82.60;98807.92;1540028;91;20327;-87
2021/09/05 06:45:53;;;;;;;;;;;;;;;13.03;82.62;98812.02;1517500;93;24770;-87
2021/09/05 06:48:22;;;;;;;;;;;;;;;13.12;82.69;98814.47;1519949;93;20282;-87
2021/09/05 06:50:52;;;;;;;;;;;;;;;13.18;82.75;98814.02;1513872;93;26157;-87
2021/09/05 06:53:18;;;;;;;;;;;;;;;13.25;82.77;98812.61;1527136;93;24439;-87
2021/09/05 06:55:45;;;;;;;;;;;;;;;13.27;82.79;98818.09;1517618;92;20253;-89
2021/09/05 06:58:11;;;;;;;;;;;;;;;13.32;82.87;98813.80;1523037;93;24818;-89
2021/09/05 07:00:37;;;;;;;;;;;;;;;13.44;82.93;98827.35;1516607;93;20246;-87
2021/09/05 07:03:03;;;;;;;;;;;;;;;13.46;82.94;98832.03;1544739;91;20937;-87
2021/09/05 07:05:34;;;;;;;;;;;;;;;13.51;82.97;98833.84;1538890;91;25332;-87
2021/09/05 07:08:01;;;;;;;;;;;;;;;13.61;83.02;98835.28;1543451;91;20763;-87
2021/09/05 07:10:30;;;;;;;;;;;;;;;13.71;83.08;98838.41;1516902;93;24990;-87
2021/09/05 07:12:56;;;;;;;;;;;;;;;13.80;83.13;98842.16;1547411;91;22154;-87
2021/09/05 07:15:22;;;;;;;;;;;;;;;13.81;83.13;98851.70;1546160;91;21063;-87
2021/09/05 07:17:48;;;;;;;;;;;;;;;13.83;83.14;98853.27;1547368;91;20968;-88
2021/09/05 07:20:14;;;;;;;;;;;;;;;13.83;83.10;98852.43;1565859;89;20237;-87
2021/09/05 07:22:40;;;;;;;;;;;;;;;13.83;83.06;98857.22;1552022;91;24734;-87
2021/09/05 07:25:10;;;;;;;;;;;;;;;13.87;83.01;98864.39;1546421;92;20182;-87
2021/09/05 07:27:36;;;;;;;;;;;;;;;13.94;83.02;98867.39;1518134;93;26037;-87
2021/09/05 07:30:05;;;;;;;;;;;;;;;13.98;83.03;98866.19;1524029;93;24531;-87
2021/09/05 07:32:33;;;;;;;;;;;;;;;13.99;83.01;98863.45;1522150;93;20383;-87
2021/09/05 07:35:02;;;;;;;;;;;;;;;14.03;82.98;98866.67;1546953;91;24796;-87
2021/09/05 07:37:28;;;;;;;;;;;;;;;14.08;82.95;98871.11;1551849;91;21984;-87
2021/09/05 07:39:54;;;;;;;;;;;;;;;14.13;82.90;98867.16;1523235;93;26732;-87
2021/09/05 07:42:20;;;;;;;;;;;;;;;14.20;82.89;98863.11;1524850;93;20282;-87
2021/09/05 07:44:46;;;;;;;;;;;;;;;14.30;82.89;98875.55;1522466;93;20330;-87
2021/09/05 07:47:12;;;;;;;;;;;;;;;14.31;82.81;98866.69;1569204;89;20271;-87
2021/09/05 07:49:38;;;;;;;;;;;;;;;14.37;82.74;98874.98;1532552;93;21094;-87
2021/09/05 07:52:04;;;;;;;;;;;;;;;14.46;82.68;98872.94;1576453;90;26105;-87
2021/09/05 07:54:37;;;;;;;;;;;;;;;14.55;82.65;98880.14;1577091;89;24693;-87
2021/09/05 07:57:03;;;;;;;;;;;;;;;14.63;82.59;98879.03;1573756;90;20253;-87
2021/09/05 07:59:30;;;;;;;;;;;;;;;14.75;82.52;98883.81;1548935;91;25703;-87
2021/09/05 08:01:56;;;;;;;;;;;;;;;14.86;82.51;98889.55;1519698;93;20243;-86
2021/09/05 08:04:22;;;;;;;;;;;;;;;14.92;82.42;98889.05;1529486;92;26072;-87
2021/09/05 08:06:47;;;;;;;;;;;;;;;15.01;82.29;98892.27;1552899;91;20298;-87
2021/09/05 08:09:13;;;;;;;;;;;;;;;15.07;82.16;98897.04;1546679;91;20362;-87
2021/09/05 08:11:39;;;;;;;;;;;;;;;15.12;81.96;98892.23;1548518;91;20520;-87
2021/09/05 08:14:06;;;;;;;;;;;;;;;15.20;81.82;98889.83;1550137;91;22039;-87
2021/09/05 08:16:33;;;;;;;;;;;;;;;15.25;81.63;98882.38;1527956;92;25974;-87
2021/09/05 08:18:59;;;;;;;;;;;;;;;15.32;81.42;98888.83;1541925;91;25211;-87
2021/09/05 08:21:25;;;;;;;;;;;;;;;15.41;81.25;98894.66;1522804;93;20301;-86
2021/09/05 08:23:51;;;;;;;;;;;;;;;15.50;81.08;98893.05;1520400;93;24774;-87
2021/09/05 08:26:19;;;;;;;;;;;;;;;15.57;80.90;98900.85;1514606;93;20827;-87
2021/09/05 08:28:46;;;;;;;;;;;;;;;15.63;80.65;98898.19;1544195;91;26882;-86
2021/09/05 08:31:12;;;;;;;;;;;;;;;15.67;80.37;98899.59;1543060;91;24432;-86
2021/09/05 08:33:38;;;;;;;;;;;;;;;15.77;80.16;98900.50;1544878;91;20501;-87
2021/09/05 08:36:04;;;;;;;;;;;;;;;15.85;79.95;98897.59;1519809;93;24834;-86
2021/09/05 08:38:39;;;;;;;;;;;;;;;15.91;79.68;98908.12;1523036;93;21926;-87
2021/09/05 08:41:05;;;;;;;;;;;;;;;15.92;79.42;98907.16;1523690;93;26011;-87
2021/09/05 08:43:37;;;;;;;;;;;;;;;15.89;79.09;98907.40;1513761;93;24590;-88
2021/09/05 08:46:02;;;;;;;;;;;;;;;15.83;78.75;98917.15;1546482;89;20270;-88
2021/09/05 08:48:29;;;;;;;;;;;;;;;15.86;78.54;98907.19;1552865;91;24727;-88
2021/09/05 08:50:55;;;;;;;;;;;;;;;15.92;78.41;98913.77;1517251;93;22111;-88
2021/09/05 08:53:23;;;;;;;;;;;;;;;15.92;78.16;98915.56;1513870;93;25634;-88
2021/09/05 08:55:50;;;;;;;;;;;;;;;15.96;77.95;98911.20;1523096;93;24573;-88
2021/09/05 08:58:16;;;;;;;;;;;;;;;16.03;77.76;98916.33;1541461;91;20264;-88
2021/09/05 09:00:42;;;;;;;;;;;;;;;16.05;77.46;98917.50;1527041;93;24788;-87
2021/09/05 09:03:09;;;;;;;;;;;;;;;16.12;77.24;98917.34;1553482;91;22080;-88
2021/09/05 09:05:36;;;;;;;;;;;;;;;16.16;77.01;98927.99;1545520;90;26074;-88
2021/09/05 09:08:04;;;;;;;;;;;;;;;16.19;76.72;98923.31;1545452;91;24385;-88
2021/09/05 09:10:30;;;;;;;;;;;;;;;16.26;76.52;98924.44;1576336;90;20241;-87
2021/09/05 09:12:56;;;;;;;;;;;;;;;16.28;76.20;98921.20;1571194;90;24791;-87
2021/09/05 09:15:29;;;;;;;;;;;;;;;16.31;75.92;98924.88;1563668;90;22689;-88
2021/09/05 09:18:03;;;;;;;;;;;;;;;16.38;75.63;98916.44;1572811;89;26001;-88
2021/09/05 09:20:42;;;;;;;;;;;;;;;16.42;75.31;98921.83;1569380;90;24421;-88
2021/09/05 09:23:12;;;;;;;;;;;;;;;16.40;74.91;98927.23;1567647;90;20245;-88
2021/09/05 09:25:40;;;;;;;;;;;;;;;16.41;74.47;98916.19;1564913;90;25523;-89
2021/09/05 09:28:08;;;;;;;;;;;;;;;16.41;74.14;98923.63;1568818;90;22200;-87
2021/09/05 09:30:35;;;;;;;;;;;;;;;16.38;73.75;98926.52;1583932;88;25831;-88
2021/09/05 09:33:01;;;;;;;;;;;;;;;16.36;73.38;98928.95;1571250;90;24591;-86
2021/09/05 09:35:29;;;;;;;;;;;;;;;16.36;73.08;98927.64;1570239;90;20264;-87
2021/09/05 09:37:57;;;;;;;;;;;;;;;16.36;72.74;98929.80;1569690;90;24856;-87
2021/09/05 09:40:24;;;;;;;;;;;;;;;16.42;72.43;98931.08;1571837;90;21965;-87
2021/09/05 09:42:50;;;;;;;;;;;;;;;16.47;72.11;98927.55;1567735;90;25666;-87
2021/09/05 09:45:17;;;;;;;;;;;;;;;16.55;71.82;98929.88;1575795;90;24423;-87
2021/09/05 09:47:47;;;;;;;;;;;;;;;16.61;71.49;98928.06;1573897;90;20296;-86
2021/09/05 09:50:14;;;;;;;;;;;;;;;16.70;71.23;98925.92;1566621;90;24898;-87
2021/09/05 09:52:41;;;;;;;;;;;;;;;16.73;70.92;98919.55;1573619;90;22175;-86
2021/09/05 09:55:08;;;;;;;;;;;;;;;16.77;70.63;98926.72;1571832;90;26069;-87
2021/09/05 09:57:33;;;;;;;;;;;;;;;16.80;70.35;98924.63;1570620;90;24461;-87
2021/09/05 10:00:00;;;;;;;;;;;;;;;16.81;70.04;98928.95;1572236;90;20327;-87
2021/09/05 10:02:27;;;;;;;;;;;;;;;16.79;69.69;98924.31;1570966;90;24754;-87
2021/09/05 10:04:55;;;;;;;;;;;;;;;16.80;69.29;98924.63;1562284;90;21960;-87
2021/09/05 10:07:22;;;;;;;;;;;;;;;16.82;68.90;98930.63;1542986;92;26725;-87
2021/09/05 10:09:49;;;;;;;;;;;;;;;16.84;68.41;98923.90;1543610;92;24465;-86
2021/09/05 10:12:15;;;;;;;;;;;;;;;16.90;68.09;98922.88;1543035;92;20235;-87
2021/09/05 10:14:43;;;;;;;;;;;;;;;16.96;67.73;98919.70;1540449;92;26353;-87
2021/09/05 10:17:11;;;;;;;;;;;;;;;17.05;67.36;98922.84;1532691;92;22216;-87
2021/09/05 10:19:38;;;;;;;;;;;;;;;17.09;66.80;98924.23;1542425;92;26177;-87
2021/09/05 10:22:04;;;;;;;;;;;;;;;17.09;66.15;98926.87;1539261;92;24047;-87
2021/09/05 10:24:43;;;;;;;;;;;;;;;17.13;65.71;98926.11;1545936;92;20513;-87
2021/09/05 10:27:09;;;;;;;;;;;;;;;17.21;65.49;98926.77;1540186;92;24810;-87
2021/09/05 10:29:35;;;;;;;;;;;;;;;17.19;64.93;98924.25;1542496;92;22063;-87
2021/09/05 10:32:02;;;;;;;;;;;;;;;17.17;64.48;98924.89;1542024;91;26017;-87
2021/09/05 10:34:37;;;;;;;;;;;;;;;17.17;64.05;98929.34;1542199;92;24504;-87
2021/09/05 10:37:04;;;;;;;;;;;;;;;17.21;63.68;98932.05;1543917;92;20337;-88
2021/09/05 10:39:30;;;;;;;;;;;;;;;17.18;63.20;98931.02;1542516;91;24738;-86
2021/09/05 10:41:56;;;;;;;;;;;;;;;17.17;62.78;98931.98;1535997;92;22023;-88
2021/09/05 10:44:22;;;;;;;;;;;;;;;17.16;62.46;98932.47;1534499;92;21004;-87
2021/09/05 10:46:51;;;;;;;;;;;;;;;17.17;62.05;98933.31;1542045;91;20323;-87
2021/09/05 10:49:17;;;;;;;;;;;;;;;17.18;61.64;98931.02;1533365;91;20718;-87
2021/09/05 10:51:46;;;;;;;;;;;;;;;17.19;61.42;98935.31;1537725;91;24990;-88
2021/09/05 10:54:23;;;;;;;;;;;;;;;17.21;61.32;98930.25;1534623;91;22102;-88
2021/09/05 10:56:49;;;;;;;;;;;;;;;17.19;61.10;98937.47;1551152;92;26204;-88
2021/09/05 10:59:19;;;;;;;;;;;;;;;17.22;60.87;98937.70;1544277;91;20457;-87
2021/09/05 11:01:48;;;;;;;;;;;;;;;17.20;60.54;98934.34;1546144;92;20354;-88
2021/09/05 11:04:16;;;;;;;;;;;;;;;17.22;60.22;98941.67;1541630;92;24720;-88
2021/09/05 11:06:44;;;;;;;;;;;;;;;17.20;59.84;98933.02;1552287;90;22277;-87
2021/09/05 11:09:22;;;;;;;;;;;;;;;17.21;59.67;98932.05;1550068;91;26092;-87
2021/09/05 11:11:50;;;;;;;;;;;;;;;17.24;59.52;98937.90;1549908;91;25368;-87
2021/09/05 11:14:16;;;;;;;;;;;;;;;17.24;59.11;98937.09;1544913;91;20268;-86
2021/09/05 11:16:44;;;;;;;;;;;;;;;17.22;58.77;98939.02;1563441;89;20214;-87
2021/09/05 11:19:12;;;;;;;;;;;;;;;17.24;58.33;98939.73;1545810;91;22151;-87
2021/09/05 11:21:39;;;;;;;;;;;;;;;17.31;57.95;98941.67;1546559;91;26885;-88
2021/09/05 11:24:05;;;;;;;;;;;;;;;17.39;57.61;98931.26;1542589;91;24536;-87
2021/09/05 11:26:31;;;;;;;;;;;;;;;17.49;57.29;98932.58;1545398;91;20326;-87
2021/09/05 11:28:57;;;;;;;;;;;;;;;17.58;57.08;98931.25;1547169;91;25397;-87
2021/09/05 11:31:23;;;;;;;;;;;;;;;17.67;56.82;98928.31;1551356;91;21765;-88
2021/09/05 11:33:49;;;;;;;;;;;;;;;17.67;56.50;98932.28;1546862;91;26047;-87
2021/09/05 11:36:16;;;;;;;;;;;;;;;17.59;56.08;98929.45;1547720;91;20258;-88
2021/09/05 11:38:43;;;;;;;;;;;;;;;17.55;55.74;98929.39;1554110;91;20456;-88
2021/09/05 11:41:11;;;;;;;;;;;;;;;17.55;55.51;98935.52;1543671;91;25409;-88
2021/09/05 11:43:38;;;;;;;;;;;;;;;17.56;55.30;98929.22;1552411;91;22068;-88
2021/09/05 11:46:13;;;;;;;;;;;;;;;17.59;55.11;98924.16;1547506;91;26701;-88
2021/09/05 11:48:39;;;;;;;;;;;;;;;17.67;55.08;98925.67;1545451;91;25705;-88
2021/09/05 11:51:05;;;;;;;;;;;;;;;17.74;54.81;98928.56;1549046;91;20275;-88
2021/09/05 11:53:32;;;;;;;;;;;;;;;17.81;54.62;98925.71;1549661;91;24718;-88
2021/09/05 11:55:59;;;;;;;;;;;;;;;17.90;54.58;98931.48;1560333;89;20383;-88
2021/09/05 11:58:27;;;;;;;;;;;;;;;17.97;54.52;98931.27;1540931;91;21069;-87
2021/09/05 12:00:54;;;;;;;;;;;;;;;18.05;54.46;98922.62;1554295;91;24659;-88
2021/09/05 12:03:30;;;;;;;;;;;;;;;18.07;54.28;98921.98;1544379;91;20636;-87
2021/09/05 12:05:55;;;;;;;;;;;;;;;18.08;54.01;98920.52;1575668;88;24770;-87
2021/09/05 12:08:22;;;;;;;;;;;;;;;18.18;54.05;98928.44;1580629;90;20883;-88
2021/09/05 12:10:50;;;;;;;;;;;;;;;18.20;53.88;98921.20;1584209;90;26011;-87
2021/09/05 12:13:16;;;;;;;;;;;;;;;18.26;53.82;98928.58;1578256;90;24546;-87
2021/09/05 12:15:46;;;;;;;;;;;;;;;18.36;53.83;98930.22;1575634;90;20554;-88
2021/09/05 12:18:17;;;;;;;;;;;;;;;18.37;53.62;98929.24;1595136;89;25768;-87
2021/09/05 12:20:44;;;;;;;;;;;;;;;18.37;53.43;98933.70;1581157;90;22076;-88
2021/09/05 12:23:18;;;;;;;;;;;;;;;18.31;53.07;98931.14;1575464;90;26280;-87
2021/09/05 12:25:47;;;;;;;;;;;;;;;18.29;52.76;98925.14;1584423;90;25183;-87
2021/09/05 12:28:17;;;;;;;;;;;;;;;18.30;52.66;98925.48;1575804;90;20354;-87
2021/09/05 12:30:50;;;;;;;;;;;;;;;18.35;52.55;98923.73;1575933;90;24932;-87
2021/09/05 12:33:18;;;;;;;;;;;;;;;18.38;52.45;98924.27;1579294;90;21975;-87
2021/09/05 12:35:46;;;;;;;;;;;;;;;18.35;52.09;98927.70;1574705;90;26710;-87
2021/09/05 12:38:13;;;;;;;;;;;;;;;18.33;51.83;98923.86;1578939;90;24434;-87
2021/09/05 12:40:44;;;;;;;;;;;;;;;18.31;51.55;98920.55;1577583;90;20240;-87
2021/09/05 12:43:11;;;;;;;;;;;;;;;18.37;51.48;98931.05;1582384;90;24711;-88
2021/09/05 12:45:37;;;;;;;;;;;;;;;18.37;51.22;98916.48;1578754;90;22644;-88
2021/09/05 12:48:11;;;;;;;;;;;;;;;18.39;51.14;98921.13;1591998;89;26053;-88